Time;durP1;ratioP1;P1;durP2;ratioP2;P2;SDS_P1;SDS_P2;PMS_P1;PMS_P2;Temp;Humidity;BMP_temperature;BMP_pressure;BME280_temperature;BME280_humidity;BME280_pressure;Samples;Min_cycle;Max_cycle;Signal;HPM_P1;HPM_P2
2020/12/21 00:01:46;;;;;;;90.73;15.23;;;4.90;99.90;;;;;;5027919;28;20717;-77
2020/12/21 00:04:13;;;;;;;154.70;15.77;;;4.90;99.90;;;;;;5031393;28;20226;-77
2020/12/21 00:06:40;;;;;;;149.33;16.03;;;4.90;99.90;;;;;;5031985;28;20713;-77
2020/12/21 00:09:06;;;;;;;120.23;15.97;;;4.80;99.90;;;;;;5035445;28;20214;-75
2020/12/21 00:11:37;;;;;;;77.40;14.57;;;4.80;99.90;;;;;;5031563;28;20223;-76
2020/12/21 00:14:05;;;;;;;139.20;16.43;;;4.80;99.90;;;;;;5031860;28;20286;-75
2020/12/21 00:16:42;;;;;;;125.13;15.43;;;4.80;99.90;;;;;;5032560;28;20234;-76
2020/12/21 00:19:09;;;;;;;161.43;17.23;;;4.90;99.90;;;;;;5033010;28;20728;-75
2020/12/21 00:21:38;;;;;;;166.40;16.27;;;4.90;99.90;;;;;;5033668;28;20318;-76
2020/12/21 00:24:05;;;;;;;60.43;12.47;;;4.90;99.90;;;;;;5030266;28;20253;-76
2020/12/21 00:26:31;;;;;;;64.53;11.30;;;4.80;99.90;;;;;;5034558;28;20295;-75
2020/12/21 00:28:58;;;;;;;37.43;10.57;;;4.80;99.90;;;;;;5032178;28;20318;-76
2020/12/21 00:31:26;;;;;;;72.13;11.17;;;4.70;99.90;;;;;;5035321;28;20223;-75
2020/12/21 00:33:53;;;;;;;95.97;12.67;;;4.70;99.90;;;;;;5033851;28;20215;-75
2020/12/21 00:36:20;;;;;;;175.13;14.03;;;4.70;99.90;;;;;;5032745;28;20309;-76
2020/12/21 00:38:47;;;;;;;60.67;10.87;;;4.60;99.90;;;;;;5031825;28;20293;-75
2020/12/21 00:41:15;;;;;;;164.93;14.63;;;4.70;99.90;;;;;;5031743;28;20229;-76
2020/12/21 00:43:42;;;;;;;143.03;13.97;;;4.60;99.90;;;;;;5032384;28;20238;-75
2020/12/21 00:46:13;;;;;;;132.50;12.70;;;4.60;99.90;;;;;;5034728;28;20205;-75
2020/12/21 00:48:39;;;;;;;68.73;10.77;;;4.70;99.90;;;;;;5030804;28;20866;-74
2020/12/21 00:51:06;;;;;;;40.77;10.63;;;4.60;99.90;;;;;;5033050;28;20897;-75
2020/12/21 00:53:33;;;;;;;97.43;11.57;;;4.60;99.90;;;;;;5029602;28;20214;-79
2020/12/21 00:56:02;;;;;;;58.23;10.47;;;4.60;99.90;;;;;;5030839;28;20212;-76
2020/12/21 00:58:29;;;;;;;61.63;9.57;;;4.60;99.90;;;;;;5032310;28;20211;-76
2020/12/21 01:00:55;;;;;;;57.47;9.67;;;4.50;99.90;;;;;;5030585;28;20224;-76
2020/12/21 01:03:22;;;;;;;28.53;9.87;;;4.50;99.90;;;;;;5034671;28;20238;-76
2020/12/21 01:05:48;;;;;;;80.23;10.40;;;4.40;99.90;;;;;;5033950;28;20239;-77
2020/12/21 01:08:15;;;;;;;60.50;10.87;;;4.40;99.90;;;;;;5032952;28;20204;-75
2020/12/21 01:10:41;;;;;;;111.83;13.20;;;4.40;99.90;;;;;;5031441;28;20489;-75
2020/12/21 01:13:08;;;;;;;52.37;12.53;;;4.40;99.90;;;;;;5031794;28;20803;-75
2020/12/21 01:15:35;;;;;;;62.13;11.47;;;4.40;99.90;;;;;;5030072;28;20239;-75
2020/12/21 01:18:01;;;;;;;81.47;10.97;;;4.40;99.90;;;;;;5035681;28;20289;-75
2020/12/21 01:20:27;;;;;;;98.23;11.70;;;4.40;99.90;;;;;;5030372;28;20409;-75
2020/12/21 01:22:54;;;;;;;30.50;10.23;;;4.40;99.90;;;;;;5033828;28;20722;-74
2020/12/21 01:25:20;;;;;;;36.13;10.70;;;4.40;99.90;;;;;;5031028;28;20215;-76
2020/12/21 01:27:46;;;;;;;42.70;11.03;;;4.40;99.90;;;;;;5031769;28;20286;-76
2020/12/21 01:30:14;;;;;;;27.87;10.20;;;4.40;99.90;;;;;;5029648;28;20709;-75
2020/12/21 01:32:40;;;;;;;31.87;9.00;;;4.50;99.90;;;;;;5033402;28;20762;-75
2020/12/21 01:35:07;;;;;;;18.60;8.40;;;4.50;99.90;;;;;;5035272;28;20634;-75
2020/12/21 01:37:33;;;;;;;26.47;8.77;;;4.50;99.90;;;;;;5034019;28;20207;-76
2020/12/21 01:40:01;;;;;;;19.97;8.20;;;4.40;99.90;;;;;;5033817;28;20305;-78
2020/12/21 01:42:28;;;;;;;21.33;8.07;;;4.40;99.90;;;;;;5034275;28;20310;-78
2020/12/21 01:44:54;;;;;;;27.40;7.93;;;4.30;99.90;;;;;;5032184;28;20298;-75
2020/12/21 01:47:22;;;;;;;19.33;7.00;;;4.30;99.90;;;;;;5033653;28;20744;-78
2020/12/21 01:49:50;;;;;;;20.70;8.27;;;4.30;99.90;;;;;;5031503;28;20294;-77
2020/12/21 01:52:18;;;;;;;19.33;7.07;;;4.30;99.90;;;;;;5030785;28;20294;-78
2020/12/21 01:54:46;;;;;;;15.27;6.93;;;4.20;99.90;;;;;;5033820;28;20283;-76
2020/12/21 01:57:12;;;;;;;22.93;7.40;;;4.10;99.90;;;;;;5032720;28;20603;-78
2020/12/21 01:59:39;;;;;;;14.83;7.23;;;4.10;99.90;;;;;;5032831;28;20294;-77
2020/12/21 02:02:06;;;;;;;15.80;7.33;;;4.10;99.90;;;;;;5031029;28;20220;-75
2020/12/21 02:04:33;;;;;;;14.00;7.30;;;4.10;99.90;;;;;;5032513;28;20294;-75
2020/12/21 02:07:01;;;;;;;13.30;6.20;;;4.10;99.90;;;;;;5031953;28;20295;-76
2020/12/21 02:09:28;;;;;;;15.57;6.40;;;4.00;99.90;;;;;;5032561;28;20290;-75
2020/12/21 02:11:55;;;;;;;10.43;5.73;;;4.00;99.90;;;;;;5033779;28;20230;-76
2020/12/21 02:14:22;;;;;;;11.67;6.53;;;3.90;99.90;;;;;;5033903;28;20207;-75
2020/12/21 02:16:49;;;;;;;17.13;6.10;;;3.80;99.90;;;;;;5034512;28;20648;-76
2020/12/21 02:19:15;;;;;;;15.40;6.77;;;3.80;99.90;;;;;;5050839;23;20318;-70
2020/12/21 02:21:42;;;;;;;22.93;6.70;;;3.80;99.90;;;;;;5024563;28;20739;-72
2020/12/21 02:24:09;;;;;;;27.53;7.00;;;3.80;99.90;;;;;;5016757;28;20711;-71
2020/12/21 02:26:35;;;;;;;23.90;6.97;;;3.80;99.90;;;;;;5026459;28;20231;-71
2020/12/21 02:29:01;;;;;;;25.30;7.10;;;3.80;99.90;;;;;;5024881;28;20949;-69
2020/12/21 02:31:28;;;;;;;25.73;6.70;;;3.80;99.90;;;;;;5022537;28;20224;-73
2020/12/21 02:33:54;;;;;;;27.07;6.97;;;3.80;99.90;;;;;;5022568;28;20341;-70
2020/12/21 02:36:21;;;;;;;32.73;7.67;;;3.80;99.90;;;;;;5020144;28;20207;-71
2020/12/21 02:38:48;;;;;;;26.87;7.23;;;3.80;99.90;;;;;;5017974;28;20550;-70
2020/12/21 02:41:15;;;;;;;27.27;7.10;;;3.80;99.90;;;;;;5021860;28;20227;-71
2020/12/21 02:43:42;;;;;;;21.27;6.93;;;3.70;99.90;;;;;;5023282;28;20720;-70
2020/12/21 02:46:09;;;;;;;21.27;7.63;;;3.70;99.90;;;;;;5025204;28;20212;-72
2020/12/21 02:48:35;;;;;;;35.53;7.00;;;3.70;99.90;;;;;;5020340;28;20206;-71
2020/12/21 02:51:02;;;;;;;25.03;7.27;;;3.70;99.90;;;;;;5022771;28;20233;-69
2020/12/21 02:53:28;;;;;;;33.70;7.50;;;3.70;99.90;;;;;;5022688;28;20196;-69
2020/12/21 02:55:55;;;;;;;36.70;6.73;;;3.70;99.90;;;;;;5022101;28;20326;-69
2020/12/21 02:58:22;;;;;;;34.97;7.33;;;3.70;99.90;;;;;;5027389;28;20338;-72
2020/12/21 03:00:48;;;;;;;20.30;6.70;;;3.70;99.90;;;;;;5023759;28;20263;-70
2020/12/21 03:03:15;;;;;;;24.07;6.80;;;3.60;99.90;;;;;;5024390;28;20314;-73
2020/12/21 03:05:42;;;;;;;37.90;7.73;;;3.60;99.90;;;;;;5021370;28;20681;-71
2020/12/21 03:08:09;;;;;;;63.80;9.77;;;3.70;99.90;;;;;;5022494;28;20238;-72
2020/12/21 03:10:38;;;;;;;85.37;11.50;;;3.60;99.90;;;;;;5022314;28;20258;-71
2020/12/21 03:13:05;;;;;;;169.07;13.17;;;3.60;99.90;;;;;;5019188;28;20242;-70
2020/12/21 03:15:32;;;;;;;101.27;12.20;;;3.50;99.90;;;;;;5018363;28;20290;-71
2020/12/21 03:17:58;;;;;;;45.73;9.67;;;3.50;99.90;;;;;;5020423;28;20723;-71
2020/12/21 03:20:24;;;;;;;73.73;10.13;;;3.50;99.90;;;;;;5023938;28;20652;-69
2020/12/21 03:22:51;;;;;;;30.40;7.67;;;3.50;99.90;;;;;;5015824;28;20297;-70
2020/12/21 03:25:18;;;;;;;20.07;8.93;;;3.50;99.90;;;;;;5021186;28;20482;-69
2020/12/21 03:27:45;;;;;;;34.60;8.87;;;3.50;99.90;;;;;;5017943;28;20752;-70
2020/12/21 03:30:12;;;;;;;38.47;8.37;;;3.50;99.90;;;;;;5019973;28;22182;-73
2020/12/21 03:32:39;;;;;;;27.80;9.40;;;3.50;99.90;;;;;;5020184;28;21091;-73
2020/12/21 03:35:07;;;;;;;36.43;9.07;;;3.50;99.90;;;;;;5021933;28;20211;-70
2020/12/21 03:37:34;;;;;;;18.43;7.73;;;3.50;99.90;;;;;;5022975;28;20290;-70
2020/12/21 03:40:01;;;;;;;45.77;9.77;;;3.50;99.90;;;;;;5016984;28;20350;-71
2020/12/21 03:42:27;;;;;;;36.90;9.60;;;3.50;99.90;;;;;;5013935;28;20306;-70
2020/12/21 03:44:54;;;;;;;27.43;9.03;;;3.50;99.90;;;;;;5017113;28;20240;-70
2020/12/21 03:47:21;;;;;;;40.67;9.03;;;3.50;99.90;;;;;;5016368;28;20228;-73
2020/12/21 03:49:47;;;;;;;23.10;7.57;;;3.50;99.90;;;;;;5016323;28;20306;-71
2020/12/21 03:52:14;;;;;;;28.13;8.73;;;3.50;99.90;;;;;;5017079;28;20261;-70
2020/12/21 03:54:40;;;;;;;33.03;8.73;;;3.50;99.90;;;;;;5019859;28;20294;-70
2020/12/21 03:57:06;;;;;;;28.67;7.80;;;3.60;99.90;;;;;;5017459;28;20737;-70
2020/12/21 03:59:33;;;;;;;26.23;8.03;;;3.60;99.90;;;;;;5020408;28;20427;-70
2020/12/21 04:01:59;;;;;;;35.40;8.30;;;3.60;99.90;;;;;;5016117;28;20638;-73
2020/12/21 04:04:26;;;;;;;26.87;7.63;;;3.60;99.90;;;;;;5016700;28;20327;-70
2020/12/21 04:06:53;;;;;;;24.70;7.83;;;3.60;99.90;;;;;;5018214;28;20653;-73
2020/12/21 04:09:19;;;;;;;56.77;9.73;;;3.60;99.90;;;;;;5019305;28;20199;-71
2020/12/21 04:11:46;;;;;;;39.13;10.00;;;3.50;99.90;;;;;;5014449;28;20767;-71
2020/12/21 04:14:12;;;;;;;35.60;8.37;;;3.60;99.90;;;;;;5013859;28;20619;-72
2020/12/21 04:16:42;;;;;;;47.70;8.53;;;3.60;99.90;;;;;;5016642;28;20702;-73
2020/12/21 04:19:08;;;;;;;34.17;8.13;;;3.60;99.90;;;;;;5014474;28;20270;-71
2020/12/21 04:21:35;;;;;;;47.37;9.30;;;3.60;99.90;;;;;;5016076;28;20767;-73
2020/12/21 04:24:02;;;;;;;37.73;9.40;;;3.60;99.90;;;;;;5014406;28;20850;-70
2020/12/21 04:26:28;;;;;;;52.83;8.33;;;3.60;99.90;;;;;;5017494;28;20323;-73
2020/12/21 04:28:54;;;;;;;46.23;8.60;;;3.60;99.90;;;;;;5013748;28;20278;-70
2020/12/21 04:31:21;;;;;;;54.10;9.17;;;3.70;99.90;;;;;;5014353;28;20232;-71
2020/12/21 04:33:48;;;;;;;38.30;8.10;;;3.70;99.90;;;;;;5016209;28;20287;-70
2020/12/21 04:36:14;;;;;;;32.47;8.47;;;3.70;99.90;;;;;;5017301;28;20212;-72
2020/12/21 04:38:43;;;;;;;46.47;9.30;;;3.70;99.90;;;;;;5014977;28;20331;-71
2020/12/21 04:41:11;;;;;;;107.47;10.43;;;3.70;99.90;;;;;;5015115;28;20824;-71
2020/12/21 04:43:38;;;;;;;58.67;10.03;;;3.60;99.90;;;;;;5012812;28;20242;-73
2020/12/21 04:46:07;;;;;;;45.60;9.63;;;3.60;99.90;;;;;;5013176;28;20675;-72
2020/12/21 04:48:39;;;;;;;46.23;9.03;;;3.60;99.90;;;;;;5011384;28;20270;-71
2020/12/21 04:51:06;;;;;;;59.70;9.10;;;3.60;99.90;;;;;;5013776;28;20224;-73
2020/12/21 04:53:32;;;;;;;44.07;10.27;;;3.70;99.90;;;;;;5014828;28;20699;-71
2020/12/21 04:56:01;;;;;;;68.00;8.93;;;3.70;99.90;;;;;;5040503;28;20196;-72
2020/12/21 04:58:27;;;;;;;60.30;7.33;;;3.70;99.90;;;;;;5030535;28;20240;-72
2020/12/21 05:00:54;;;;;;;39.73;6.93;;;3.70;99.90;;;;;;5013229;28;20697;-75
2020/12/21 05:03:20;;;;;;;28.33;7.13;;;3.70;99.90;;;;;;5014630;28;20307;-71
2020/12/21 05:05:46;;;;;;;41.93;6.43;;;3.70;99.90;;;;;;5018504;28;20204;-71
2020/12/21 05:08:14;;;;;;;45.70;8.40;;;3.70;99.90;;;;;;5017174;28;20658;-71
2020/12/21 05:10:43;;;;;;;45.63;8.13;;;3.70;99.90;;;;;;5019621;28;20263;-71
2020/12/21 05:13:12;;;;;;;28.43;8.20;;;3.70;99.90;;;;;;5017352;28;20274;-71
2020/12/21 05:15:38;;;;;;;36.37;9.20;;;3.80;99.90;;;;;;5019618;28;20337;-73
2020/12/21 05:18:06;;;;;;;53.07;9.90;;;3.80;99.90;;;;;;5017332;28;20748;-70
2020/12/21 05:20:34;;;;;;;54.87;9.30;;;3.80;99.90;;;;;;5016810;28;20240;-71
2020/12/21 05:23:01;;;;;;;57.43;10.33;;;3.70;99.90;;;;;;5015685;28;20453;-72
2020/12/21 05:25:27;;;;;;;44.73;8.83;;;3.60;99.90;;;;;;5020931;28;20246;-71
2020/12/21 05:27:54;;;;;;;41.53;8.70;;;3.60;99.90;;;;;;5017542;28;20287;-71
2020/12/21 05:30:21;;;;;;;44.50;9.53;;;3.60;99.90;;;;;;5012175;28;20220;-73
2020/12/21 05:32:58;;;;;;;32.23;8.33;;;3.60;99.90;;;;;;5018188;28;20672;-71
2020/12/21 05:35:28;;;;;;;37.87;8.20;;;3.50;99.90;;;;;;5015711;28;20286;-73
2020/12/21 05:37:55;;;;;;;28.17;7.90;;;3.50;99.90;;;;;;5016335;28;20247;-72
2020/12/21 05:40:25;;;;;;;49.27;8.73;;;3.60;99.90;;;;;;5016586;28;20728;-72
2020/12/21 05:42:51;;;;;;;44.47;8.80;;;3.60;99.90;;;;;;5014441;28;20232;-72
2020/12/21 05:45:18;;;;;;;50.53;8.93;;;3.60;99.90;;;;;;5018240;28;20656;-72
2020/12/21 05:47:48;;;;;;;46.47;8.33;;;3.60;99.90;;;;;;5014102;28;20303;-72
2020/12/21 05:50:20;;;;;;;56.30;10.07;;;3.60;99.90;;;;;;5020572;28;20231;-73
2020/12/21 05:52:53;;;;;;;31.43;7.80;;;3.60;99.90;;;;;;5018372;28;20654;-72
2020/12/21 05:55:21;;;;;;;35.23;7.47;;;3.60;99.90;;;;;;5026368;28;20214;-72
2020/12/21 05:57:49;;;;;;;19.80;7.17;;;3.50;99.90;;;;;;5019790;28;20203;-72
2020/12/21 06:00:16;;;;;;;44.53;8.43;;;3.50;99.90;;;;;;5018468;28;20223;-72
2020/12/21 06:02:43;;;;;;;40.17;8.83;;;3.50;99.90;;;;;;5015687;28;20232;-71
2020/12/21 06:05:11;;;;;;;31.07;7.63;;;3.50;99.90;;;;;;5025940;28;20206;-73
2020/12/21 06:07:39;;;;;;;23.27;7.50;;;3.60;99.90;;;;;;5034473;28;20203;-71
2020/12/21 06:10:07;;;;;;;36.70;8.13;;;3.60;99.90;;;;;;5018126;28;20247;-72
2020/12/21 06:12:44;;;;;;;34.73;7.67;;;3.60;99.90;;;;;;5014979;28;20220;-72
2020/12/21 06:15:13;;;;;;;31.67;6.73;;;3.60;99.90;;;;;;5017359;28;20214;-71
2020/12/21 06:17:39;;;;;;;36.90;8.23;;;3.50;99.90;;;;;;5015986;28;20273;-72
2020/12/21 06:20:07;;;;;;;31.50;7.20;;;3.60;99.90;;;;;;5013699;28;20323;-72
2020/12/21 06:22:35;;;;;;;26.70;7.73;;;3.50;99.90;;;;;;5015303;28;20234;-72
2020/12/21 06:25:03;;;;;;;27.60;7.33;;;3.60;99.90;;;;;;5017090;28;20254;-72
2020/12/21 06:27:39;;;;;;;50.13;8.27;;;3.60;99.90;;;;;;5017212;28;20668;-72
2020/12/21 06:30:07;;;;;;;47.93;7.90;;;3.50;99.90;;;;;;5017116;28;20235;-72
2020/12/21 06:32:34;;;;;;;24.93;7.57;;;3.50;99.90;;;;;;5014239;28;21401;-73
2020/12/21 06:35:03;;;;;;;50.70;11.60;;;3.50;99.90;;;;;;5012691;28;20286;-73
2020/12/21 06:37:29;;;;;;;32.13;10.97;;;3.50;99.90;;;;;;5018585;28;20290;-72
2020/12/21 06:40:02;;;;;;;31.37;8.50;;;3.60;99.90;;;;;;5015686;28;20314;-71
2020/12/21 06:42:28;;;;;;;42.93;14.37;;;3.60;99.90;;;;;;5015938;28;20307;-71
2020/12/21 06:44:55;;;;;;;33.73;13.20;;;3.50;99.90;;;;;;5015718;28;20287;-71
2020/12/21 06:47:23;;;;;;;26.93;11.40;;;3.60;99.90;;;;;;5013194;28;20916;-71
2020/12/21 06:49:50;;;;;;;24.50;8.70;;;3.60;99.90;;;;;;5013120;28;20600;-71
2020/12/21 06:52:16;;;;;;;32.97;8.50;;;3.60;99.90;;;;;;5016272;28;20299;-71
2020/12/21 06:54:44;;;;;;;27.10;7.77;;;3.60;99.90;;;;;;5011021;28;20295;-71
2020/12/21 06:57:12;;;;;;;22.20;7.50;;;3.50;99.90;;;;;;5016173;28;20342;-71
2020/12/21 06:59:38;;;;;;;24.80;7.53;;;3.50;99.90;;;;;;5017721;28;20231;-71
2020/12/21 07:02:05;;;;;;;23.87;7.47;;;3.50;99.90;;;;;;5020850;28;20354;-71
2020/12/21 07:04:33;;;;;;;26.03;7.70;;;3.50;99.90;;;;;;5016095;28;20251;-72
2020/12/21 07:07:02;;;;;;;33.93;7.53;;;3.50;99.90;;;;;;5021880;28;20287;-72
2020/12/21 07:09:30;;;;;;;23.17;7.67;;;3.50;99.90;;;;;;5016640;28;20201;-71
2020/12/21 07:11:58;;;;;;;23.37;7.60;;;3.50;99.90;;;;;;5019489;28;20295;-72
2020/12/21 07:14:27;;;;;;;31.63;8.27;;;3.40;99.90;;;;;;5019829;28;20295;-71
2020/12/21 07:17:07;;;;;;;23.80;8.60;;;3.50;99.90;;;;;;5039732;28;20199;-70
2020/12/21 07:19:35;;;;;;;31.03;8.47;;;3.50;99.90;;;;;;5030918;28;20218;-71
2020/12/21 07:22:03;;;;;;;28.33;10.77;;;3.50;99.90;;;;;;5016660;28;20753;-70
2020/12/21 07:24:29;;;;;;;22.57;8.63;;;3.50;99.90;;;;;;5018106;28;20315;-71
2020/12/21 07:26:56;;;;;;;19.27;7.30;;;3.50;99.90;;;;;;5018124;28;20259;-71
2020/12/21 07:29:22;;;;;;;21.27;8.50;;;3.50;99.90;;;;;;5019413;28;20732;-71
2020/12/21 07:31:50;;;;;;;21.97;8.03;;;3.50;99.90;;;;;;5018324;28;20250;-70
2020/12/21 07:34:16;;;;;;;23.27;7.93;;;3.50;99.90;;;;;;5018525;28;20236;-70
2020/12/21 07:36:43;;;;;;;19.93;7.43;;;3.50;99.90;;;;;;5021168;28;20326;-70
2020/12/21 07:39:11;;;;;;;30.20;8.53;;;3.50;99.90;;;;;;5019303;28;20744;-71
2020/12/21 07:41:39;;;;;;;24.13;8.27;;;3.50;99.90;;;;;;5019201;28;20228;-70
2020/12/21 07:44:10;;;;;;;24.70;9.03;;;3.60;99.90;;;;;;5016902;28;20311;-71
2020/12/21 07:46:40;;;;;;;25.60;8.60;;;3.60;99.90;;;;;;5015385;28;20300;-70
2020/12/21 07:49:10;;;;;;;27.73;8.23;;;3.70;99.90;;;;;;5015563;28;20208;-71
2020/12/21 07:51:39;;;;;;;20.93;8.27;;;3.70;99.90;;;;;;5018774;28;20314;-71
2020/12/21 07:54:07;;;;;;;24.67;8.10;;;3.80;99.90;;;;;;5016247;28;20200;-71
2020/12/21 07:56:33;;;;;;;25.67;8.20;;;3.70;99.90;;;;;;5020412;28;20227;-71
2020/12/21 07:59:15;;;;;;;24.03;8.60;;;3.70;99.90;;;;;;5019061;28;20705;-72
2020/12/21 08:01:41;;;;;;;21.17;8.37;;;3.80;99.90;;;;;;5016445;28;20617;-71
2020/12/21 08:04:16;;;;;;;21.63;7.03;;;3.70;99.90;;;;;;5018904;28;21679;-70
2020/12/21 08:06:42;;;;;;;18.53;7.37;;;3.70;99.90;;;;;;5017407;28;20214;-69
2020/12/21 08:09:09;;;;;;;20.80;7.90;;;3.70;99.90;;;;;;5012599;28;20680;-72
2020/12/21 08:11:36;;;;;;;26.37;8.40;;;3.80;99.90;;;;;;5017249;28;20398;-72
2020/12/21 08:14:04;;;;;;;24.53;8.40;;;3.80;99.90;;;;;;5015812;28;20288;-71
2020/12/21 08:16:31;;;;;;;21.30;7.60;;;3.70;99.90;;;;;;5017536;28;20349;-72
2020/12/21 08:21:35;;;;;;;14.80;6.93;;;3.70;99.90;;;;;;5006813;28;20258;-74
2020/12/21 08:24:01;;;;;;;26.60;7.07;;;3.80;99.90;;;;;;5007569;28;20769;-74
2020/12/21 08:26:28;;;;;;;18.73;7.00;;;3.80;99.90;;;;;;5006910;28;20324;-74
2020/12/21 08:28:55;;;;;;;23.63;6.93;;;3.80;99.90;;;;;;5009444;28;20299;-74
2020/12/21 08:31:23;;;;;;;24.50;8.13;;;3.80;99.90;;;;;;5009253;28;20297;-74
2020/12/21 08:33:59;;;;;;;26.37;9.27;;;3.90;99.90;;;;;;5004772;28;20291;-74
2020/12/21 08:36:27;;;;;;;31.83;9.57;;;3.90;99.90;;;;;;5007095;28;20314;-74
2020/12/21 08:39:08;;;;;;;24.47;9.93;;;3.90;99.90;;;;;;5008677;28;20196;-73
2020/12/21 08:41:36;;;;;;;30.20;11.03;;;4.00;99.90;;;;;;5004080;28;20364;-74
2020/12/21 08:44:04;;;;;;;25.23;10.27;;;4.00;99.90;;;;;;5011130;28;20315;-73
2020/12/21 08:46:30;;;;;;;24.63;8.50;;;4.10;99.90;;;;;;5006399;28;20287;-74
2020/12/21 08:48:57;;;;;;;25.93;8.80;;;4.20;99.90;;;;;;5004021;28;20295;-74
2020/12/21 08:51:23;;;;;;;18.33;7.83;;;4.30;99.90;;;;;;5005959;28;20308;-74
2020/12/21 08:53:49;;;;;;;28.00;8.90;;;4.30;99.90;;;;;;5007184;28;20291;-74
2020/12/21 08:56:17;;;;;;;21.10;8.53;;;4.30;99.90;;;;;;5010039;28;20291;-74
2020/12/21 08:58:43;;;;;;;22.73;9.33;;;4.40;99.90;;;;;;5010773;28;20207;-75
2020/12/21 09:01:09;;;;;;;20.47;8.60;;;4.40;99.90;;;;;;5006904;28;20585;-74
2020/12/21 09:03:36;;;;;;;24.20;10.73;;;4.50;99.90;;;;;;5008248;28;20608;-74
2020/12/21 09:06:04;;;;;;;24.83;9.40;;;4.60;99.90;;;;;;5009904;28;20204;-74
2020/12/21 09:08:30;;;;;;;29.00;10.40;;;4.60;99.90;;;;;;5006937;28;20748;-74
2020/12/21 09:10:56;;;;;;;22.63;9.57;;;4.70;99.90;;;;;;5009123;28;20255;-75
2020/12/21 09:13:24;;;;;;;23.00;10.47;;;4.70;99.90;;;;;;5011226;28;20291;-74
2020/12/21 09:15:50;;;;;;;28.10;10.40;;;4.90;99.90;;;;;;5011627;28;20260;-74
2020/12/21 09:18:17;;;;;;;23.07;9.97;;;5.00;99.90;;;;;;5010152;28;20241;-74
2020/12/21 09:20:44;;;;;;;24.70;8.90;;;5.10;99.90;;;;;;5034793;28;20230;-73
2020/12/21 09:23:11;;;;;;;23.93;10.23;;;5.20;99.90;;;;;;5049191;28;20865;-76
2020/12/21 09:25:37;;;;;;;21.77;8.93;;;5.40;99.90;;;;;;5050048;28;20234;-75
2020/12/21 09:28:04;;;;;;;20.80;8.20;;;5.50;99.90;;;;;;5050985;28;20674;-76
2020/12/21 09:30:32;;;;;;;16.23;8.80;;;5.60;99.90;;;;;;5049538;28;20261;-76
2020/12/21 09:32:59;;;;;;;16.97;8.47;;;5.70;99.90;;;;;;5048580;28;20424;-76
2020/12/21 09:35:26;;;;;;;16.77;7.47;;;5.60;99.90;;;;;;5051714;28;20898;-75
2020/12/21 09:37:52;;;;;;;17.23;8.33;;;5.70;99.90;;;;;;5049073;28;20565;-75
2020/12/21 09:40:19;;;;;;;19.80;9.57;;;5.70;99.90;;;;;;5047248;28;20300;-75
2020/12/21 09:42:45;;;;;;;24.97;11.43;;;5.70;99.90;;;;;;5050739;28;20226;-75
2020/12/21 09:45:11;;;;;;;21.70;7.93;;;5.70;99.90;;;;;;5045612;28;20213;-75
2020/12/21 09:47:39;;;;;;;21.03;7.93;;;5.70;99.90;;;;;;5048087;28;20296;-76
2020/12/21 09:50:05;;;;;;;19.43;8.03;;;5.80;99.90;;;;;;5044111;28;20310;-74
2020/12/21 09:52:32;;;;;;;16.20;8.17;;;5.80;99.90;;;;;;5048233;28;20348;-74
2020/12/21 09:54:58;;;;;;;17.63;8.13;;;5.80;99.90;;;;;;5045001;28;20298;-73
2020/12/21 09:57:24;;;;;;;20.93;8.87;;;5.80;99.90;;;;;;5048080;28;20290;-73
2020/12/21 09:59:51;;;;;;;20.23;9.30;;;5.80;99.90;;;;;;5050120;28;20614;-73
2020/12/21 10:02:17;;;;;;;19.20;8.87;;;5.90;99.90;;;;;;5048702;28;20332;-73
2020/12/21 10:04:44;;;;;;;18.13;8.33;;;5.80;99.90;;;;;;5045940;28;20313;-76
2020/12/21 10:07:11;;;;;;;14.70;7.30;;;5.90;99.90;;;;;;5052587;28;20209;-74
2020/12/21 10:09:37;;;;;;;16.77;8.60;;;5.90;99.90;;;;;;5050481;28;20293;-74
2020/12/21 10:12:04;;;;;;;20.53;8.87;;;6.00;99.90;;;;;;5050600;28;20723;-73
2020/12/21 10:14:30;;;;;;;13.47;7.73;;;6.10;99.90;;;;;;5051318;28;20286;-73
2020/12/21 10:16:57;;;;;;;15.60;7.40;;;6.10;99.90;;;;;;5052741;28;20671;-74
2020/12/21 10:19:23;;;;;;;19.90;8.20;;;6.10;99.90;;;;;;5050887;28;20269;-73
2020/12/21 10:21:50;;;;;;;18.43;7.17;;;6.10;99.90;;;;;;5047006;28;20405;-73
2020/12/21 10:24:17;;;;;;;16.13;7.40;;;6.10;99.90;;;;;;5048490;28;20253;-74
2020/12/21 10:26:43;;;;;;;20.03;7.83;;;6.10;99.90;;;;;;5050799;28;20302;-74
2020/12/21 10:29:10;;;;;;;20.63;7.53;;;6.10;99.90;;;;;;5048697;28;20289;-74
2020/12/21 10:31:36;;;;;;;18.10;7.30;;;6.10;99.90;;;;;;5051468;28;20269;-75
2020/12/21 10:34:03;;;;;;;18.40;7.53;;;6.20;99.90;;;;;;5048586;28;20558;-73
2020/12/21 10:36:29;;;;;;;21.57;8.63;;;6.20;99.90;;;;;;5048953;28;20293;-74
2020/12/21 10:38:56;;;;;;;19.63;8.70;;;6.30;99.90;;;;;;5051573;28;20256;-73
2020/12/21 10:41:23;;;;;;;19.17;7.93;;;6.40;99.90;;;;;;5051377;28;21146;-74
2020/12/21 10:43:49;;;;;;;23.27;9.17;;;6.40;99.90;;;;;;5052875;28;20321;-74
2020/12/21 10:46:22;;;;;;;18.50;9.40;;;6.40;99.90;;;;;;5051774;28;20195;-74
2020/12/21 10:48:49;;;;;;;13.77;7.80;;;6.50;99.90;;;;;;5052134;28;20241;-74
2020/12/21 10:51:15;;;;;;;14.77;7.70;;;6.60;99.90;;;;;;5054517;28;20305;-74
2020/12/21 10:53:42;;;;;;;16.27;7.23;;;6.60;99.90;;;;;;5052957;28;20287;-74
2020/12/21 10:56:13;;;;;;;13.93;7.70;;;6.60;99.90;;;;;;5052442;28;20293;-73
2020/12/21 10:58:43;;;;;;;21.63;8.87;;;6.60;99.90;;;;;;5053834;28;20653;-74
2020/12/21 11:01:09;;;;;;;20.90;8.23;;;6.60;99.90;;;;;;5051886;28;20786;-74
2020/12/21 11:03:36;;;;;;;20.47;8.37;;;6.60;99.90;;;;;;5048635;28;20265;-74
2020/12/21 11:06:03;;;;;;;16.13;7.40;;;6.70;99.90;;;;;;5054655;28;20226;-74
2020/12/21 11:08:30;;;;;;;16.67;7.33;;;6.80;99.90;;;;;;5053033;28;21336;-74
2020/12/21 11:10:56;;;;;;;18.83;7.33;;;6.80;99.90;;;;;;5051547;28;20233;-74
2020/12/21 11:13:23;;;;;;;11.90;5.77;;;6.80;99.90;;;;;;5051846;28;20315;-74
2020/12/21 11:15:50;;;;;;;15.03;6.60;;;7.00;99.90;;;;;;5052104;28;20695;-74
2020/12/21 11:18:16;;;;;;;17.83;7.23;;;7.00;99.90;;;;;;5049487;28;20234;-74
2020/12/21 11:20:43;;;;;;;12.93;6.73;;;7.10;99.90;;;;;;5054269;28;20738;-74
2020/12/21 11:23:10;;;;;;;11.87;5.77;;;7.00;99.90;;;;;;5050086;28;20343;-73
2020/12/21 11:25:36;;;;;;;20.83;7.47;;;7.00;99.90;;;;;;5056451;28;20265;-73
2020/12/21 11:28:04;;;;;;;15.97;6.97;;;7.00;99.90;;;;;;5055246;28;20211;-74
2020/12/21 11:30:31;;;;;;;11.13;6.43;;;7.00;99.90;;;;;;5053820;28;20242;-74
2020/12/21 11:32:58;;;;;;;13.87;7.00;;;6.90;99.90;;;;;;5054616;28;20337;-73
2020/12/21 11:35:25;;;;;;;13.27;7.33;;;6.90;99.90;;;;;;5052668;28;20538;-73
2020/12/21 11:37:51;;;;;;;18.13;6.90;;;7.00;99.90;;;;;;5052393;28;20302;-73
2020/12/21 11:40:18;;;;;;;14.93;7.07;;;7.00;99.90;;;;;;5052710;28;20223;-73
2020/12/21 11:42:44;;;;;;;12.63;6.43;;;7.10;99.90;;;;;;5054206;28;20226;-73
2020/12/21 11:45:11;;;;;;;13.67;6.50;;;7.10;99.90;;;;;;5050497;28;20278;-74
2020/12/21 11:47:39;;;;;;;16.27;6.30;;;7.10;99.90;;;;;;5053345;28;20235;-74
2020/12/21 11:50:05;;;;;;;12.87;5.70;;;7.10;99.90;;;;;;5050154;28;20225;-73
2020/12/21 11:52:32;;;;;;;12.33;5.90;;;7.10;99.90;;;;;;5051983;28;20202;-75
2020/12/21 11:54:59;;;;;;;15.23;6.37;;;7.10;99.90;;;;;;5051844;28;20202;-75
2020/12/21 11:57:27;;;;;;;12.73;5.47;;;7.10;99.90;;;;;;5054910;28;20242;-73
2020/12/21 11:59:54;;;;;;;14.37;6.53;;;7.10;99.90;;;;;;5056380;28;20265;-73
2020/12/21 12:02:21;;;;;;;20.73;6.27;;;7.10;99.90;;;;;;5050786;28;20329;-73
2020/12/21 12:04:48;;;;;;;11.53;5.10;;;7.10;99.90;;;;;;5050893;28;20227;-75
2020/12/21 12:07:15;;;;;;;14.70;5.77;;;7.10;99.90;;;;;;5053038;28;20241;-73
2020/12/21 12:09:42;;;;;;;24.33;5.60;;;7.20;99.90;;;;;;5050963;28;20246;-73
2020/12/21 12:12:08;;;;;;;17.47;5.87;;;7.20;99.90;;;;;;5052342;28;20203;-75
2020/12/21 12:14:35;;;;;;;12.90;5.90;;;7.20;99.90;;;;;;5052403;28;20314;-73
2020/12/21 12:17:02;;;;;;;18.53;5.90;;;7.30;99.90;;;;;;5049890;28;20207;-73
2020/12/21 12:19:29;;;;;;;13.77;5.83;;;7.30;99.90;;;;;;5048579;28;20221;-73
2020/12/21 12:21:56;;;;;;;14.23;5.47;;;7.20;99.90;;;;;;5049696;28;20265;-73
2020/12/21 12:24:23;;;;;;;13.17;6.70;;;7.20;99.90;;;;;;5048402;28;20707;-75
2020/12/21 12:26:53;;;;;;;13.63;6.23;;;7.30;99.90;;;;;;5052521;28;20249;-75
2020/12/21 12:29:19;;;;;;;15.63;6.27;;;7.30;99.90;;;;;;5051706;28;20668;-73
2020/12/21 12:31:46;;;;;;;14.10;6.60;;;7.30;99.90;;;;;;5052079;28;20250;-75
2020/12/21 12:34:12;;;;;;;13.33;5.93;;;7.30;99.90;;;;;;5048952;28;20238;-73
2020/12/21 12:36:40;;;;;;;19.20;6.50;;;7.40;99.90;;;;;;5051677;28;20203;-73
2020/12/21 12:39:08;;;;;;;13.43;6.53;;;7.40;99.90;;;;;;5055127;28;20202;-73
2020/12/21 12:41:38;;;;;;;15.67;6.30;;;7.40;99.90;;;;;;5047877;28;20230;-73
2020/12/21 12:44:04;;;;;;;15.10;6.43;;;7.40;99.90;;;;;;5048425;28;20215;-73
2020/12/21 12:46:31;;;;;;;14.93;6.33;;;7.40;99.90;;;;;;5051177;28;20289;-74
2020/12/21 12:48:57;;;;;;;17.90;7.20;;;7.40;99.90;;;;;;5049623;28;20214;-74